Moffett, Oklahoma
Current Conditions -  °F | °C
As of 6:53 PM on Wednesday 22 Oct 2014 (Local Time) from KFSM Reporting Station
Clear Clear  
Wind Chill: 65°   Ceiling: Unl
Heat Index: 65°   Visibility: 10mi
Dew Point: 53°   Wind: 7mph
Humidity: 65%   Direction: 70°ENE
Pressure: 30.13"   Gusts: NA
Location:  35.39°N, 94.45°W
Report Text: KFSM 222353Z 07006KT 10SM CLR 18/12 A3013 RMK AO2 SLP202 T01830117 10244 20183 53006
Loading
Personal Weather Stations






























Interactive Weather Map
Tropical Storm Tracking
New forecast layout! Learn more

10-Day Weather Forecast

Advertisements
Track Severe Weather on mobile